NCAR-RAP Real-Time Weather Data

Output produced by METARs form (08 May 2021  02:30 UTC)
found at http://weather.rap.ucar.edu/surface/
 
KDCA 080152Z 31007KT 10SM FEW050 SCT070 BKN120 11/07 A2992 RMK AO2 SLP132 T01110067
KDCA 080052Z 32009KT 10SM SCT048 BKN065 BKN110 12/08 A2990 RMK AO2 RAE42 SLP124 P0000 T01170078
KDCA 072352Z 30006KT 10SM -RA SCT060 BKN070 OVC110 12/09 A2989 RMK AO2 SLP121 P0001 60005 T01220089 10183 20122 51009
KDCA 072252Z 34005KT 10SM -RA FEW016 BKN055 OVC070 12/09 A2988 RMK AO2 SLP119 P0001 T01220089
KDCA 072152Z 34005KT 8SM -RA SCT027 OVC055 12/08 A2987 RMK AO2 SLP115 P0003 T01220083
KDCA 072052Z 36007KT 10SM -RA SCT040 OVC055 13/08 A2986 RMK AO2 LTG DSNT E AND SE SLP112 P0000 60000 T01330083 53005
KDCA 071952Z 28011KT 10SM -RA SCT060 OVC075 15/07 A2984 RMK AO2 PK WND 26027/1909 RAB07 SLP105 P0000 T01500072
KDCA 071852Z 22008G18KT 10SM VCTS BKN050 BKN080 OVC110 17/06 A2984 RMK AO2 SLP104 T01720056
KDCA 071828Z 22013G17KT 10SM VCTS SCT049 BKN095 18/07 A2984 RMK AO2 T01830067
KDCA 071752Z 24009KT 220V280 10SM SCT050 BKN090 OVC120 18/07 A2985 RMK AO2 SLP107 T01780067 10183 20122 58016
KDCA 071652Z 21008KT 10SM SCT050 OVC085 17/07 A2987 RMK AO2 SLP113 T01720067
KDCA 071552Z 19007KT 10SM SCT045 SCT075 BKN130 OVC250 17/07 A2989 RMK AO2 SLP120 T01720067
KDCA 071452Z 21006KT 10SM FEW035 SCT140 OVC250 16/06 A2989 RMK AO2 SLP123 T01610061 55006
KDCA 071352Z 15005KT 10SM FEW080 OVC250 16/06 A2989 RMK AO2 SLP122 T01560056
KDCA 071252Z 11004KT 10SM FEW070 FEW160 OVC250 14/08 A2990 RMK AO2 SLP125 T01390078
KDCA 071152Z 04003KT 10SM FEW140 BKN250 12/09 A2991 RMK AO2 SLP129 T01220089 10122 20094 53000
KDCA 071052Z 00000KT 10SM FEW150 SCT250 11/06 A2991 RMK AO2 SLP129 T01060061